Time;durP1;ratioP1;P1;durP2;ratioP2;P2;SDS_P1;SDS_P2;PMS_P1;PMS_P2;Temp;Humidity;BMP_temperature;BMP_pressure;BME280_temperature;BME280_humidity;BME280_pressure;Samples;Min_cycle;Max_cycle;Signal;HPM_P1;HPM_P2
2022/07/30 00:00:06;;;;;;;1.27;1.17;;;;;;;19.09;53.09;100723.84;4974593;28;20572;-73
2022/07/30 00:02:32;;;;;;;2.33;1.33;;;;;;;19.09;53.00;100716.75;4972883;28;20201;-74
2022/07/30 00:04:58;;;;;;;1.40;1.30;;;;;;;19.07;53.50;100716.00;4956254;28;20194;-74
2022/07/30 00:07:25;;;;;;;1.70;1.13;;;;;;;19.03;53.59;100706.59;4972739;28;20225;-74
2022/07/30 00:09:51;;;;;;;1.40;1.30;;;;;;;19.03;53.63;100690.72;4965342;28;20233;-73
2022/07/30 00:12:18;;;;;;;1.50;1.30;;;;;;;19.02;53.64;100685.53;4969865;28;20548;-73
2022/07/30 00:14:46;;;;;;;1.83;1.33;;;;;;;19.00;53.63;100690.91;4970514;28;20202;-74
2022/07/30 00:17:12;;;;;;;1.30;1.10;;;;;;;18.97;54.03;100696.38;4986361;23;20225;-74
2022/07/30 00:19:39;;;;;;;5.00;1.30;;;;;;;18.96;54.26;100697.31;4969055;28;20221;-74
2022/07/30 00:22:05;;;;;;;1.93;1.30;;;;;;;18.91;54.34;100694.09;4956822;28;20229;-73
2022/07/30 00:24:31;;;;;;;1.83;1.30;;;;;;;18.87;54.19;100693.44;4963873;28;20202;-74
2022/07/30 00:26:58;;;;;;;1.90;1.27;;;;;;;18.80;54.63;100692.06;4960655;28;20202;-74
2022/07/30 00:29:25;;;;;;;2.40;1.60;;;;;;;18.74;54.97;100695.06;4967040;28;20237;-74
2022/07/30 00:31:53;;;;;;;1.60;1.27;;;;;;;18.71;55.33;100692.59;4991874;23;20233;-70
2022/07/30 00:34:19;;;;;;;1.50;1.30;;;;;;;18.67;55.38;100699.84;4994703;28;20764;-70
2022/07/30 00:36:45;;;;;;;1.87;1.37;;;;;;;18.64;55.68;100696.56;4994439;28;20200;-70
2022/07/30 00:39:12;;;;;;;1.43;1.33;;;;;;;18.61;55.62;100692.31;4978237;28;20249;-70
2022/07/30 00:41:53;;;;;;;1.37;1.20;;;;;;;18.57;56.00;100692.56;4990280;28;20621;-70
2022/07/30 00:44:19;;;;;;;1.47;1.37;;;;;;;18.53;55.93;100695.38;4984876;28;20216;-70
2022/07/30 00:46:45;;;;;;;3.37;1.37;;;;;;;18.50;56.10;100694.72;4993302;28;20226;-70
2022/07/30 00:49:13;;;;;;;2.43;1.30;;;;;;;18.46;56.13;100695.84;4984859;28;20228;-70
2022/07/30 00:51:39;;;;;;;2.00;1.23;;;;;;;18.43;56.56;100696.00;4987518;28;20231;-70
2022/07/30 00:54:06;;;;;;;1.60;1.20;;;;;;;18.41;56.89;100700.53;4983202;28;20202;-70
2022/07/30 00:56:32;;;;;;;1.97;1.40;;;;;;;18.38;56.82;100690.16;4986810;28;20213;-70
2022/07/30 00:58:59;;;;;;;2.20;1.50;;;;;;;18.35;56.71;100685.91;4984753;28;20236;-70
2022/07/30 01:01:25;;;;;;;3.30;1.40;;;;;;;18.33;57.21;100687.78;4983348;28;20197;-70
2022/07/30 01:03:51;;;;;;;3.43;1.30;;;;;;;18.28;57.11;100685.41;4988295;28;20208;-70
2022/07/30 01:06:19;;;;;;;1.77;1.40;;;;;;;18.28;57.74;100687.19;4987010;28;20215;-70
2022/07/30 01:08:45;;;;;;;4.03;1.53;;;;;;;18.25;57.42;100684.72;4984943;28;20601;-70
2022/07/30 01:11:12;;;;;;;2.43;1.20;;;;;;;18.22;58.08;100683.09;4993613;28;20557;-70
2022/07/30 01:13:42;;;;;;;3.53;1.50;;;;;;;18.21;58.50;100677.94;4985330;28;20227;-70
2022/07/30 01:16:09;;;;;;;1.40;1.30;;;;;;;18.19;58.68;100680.66;4987901;28;20213;-70
2022/07/30 01:21:28;;;;;;;1.90;1.37;;;;;;;18.16;59.07;100684.31;4969825;28;20584;-70
2022/07/30 01:24:00;;;;;;;1.93;1.27;;;;;;;18.13;59.18;100679.22;4983901;28;20232;-70
2022/07/30 01:26:29;;;;;;;1.70;1.10;;;;;;;18.13;59.83;100681.88;4985900;28;20553;-70
2022/07/30 01:28:56;;;;;;;2.63;1.50;;;;;;;18.11;59.68;100678.44;4993325;28;20220;-70
2022/07/30 01:31:25;;;;;;;1.60;1.23;;;;;;;18.11;60.25;100683.72;4985208;28;20231;-70
2022/07/30 01:33:54;;;;;;;3.13;1.23;;;;;;;18.12;60.12;100679.31;4983470;28;20632;-70
2022/07/30 01:36:23;;;;;;;2.60;1.30;;;;;;;18.11;60.19;100689.00;4984300;28;20213;-70
2022/07/30 01:38:50;;;;;;;1.57;1.30;;;;;;;18.09;60.65;100676.84;4988600;28;20225;-70
2022/07/30 01:41:18;;;;;;;1.43;1.17;;;;;;;18.08;61.01;100675.13;4986249;28;20208;-70
2022/07/30 01:43:47;;;;;;;1.10;1.00;;;;;;;18.06;61.18;100669.09;4986138;28;20236;-70
2022/07/30 01:46:16;;;;;;;2.87;1.33;;;;;;;18.04;61.32;100666.53;4988032;28;20217;-70
2022/07/30 01:48:45;;;;;;;3.00;1.67;;;;;;;18.03;61.78;100667.50;4986350;28;20700;-70
2022/07/30 01:51:13;;;;;;;2.30;1.40;;;;;;;18.01;61.80;100664.09;5000365;28;20229;-70
2022/07/30 01:53:45;;;;;;;2.07;1.40;;;;;;;18.02;61.89;100664.94;4986649;28;20256;-70
2022/07/30 01:56:14;;;;;;;1.43;1.23;;;;;;;18.00;61.84;100670.28;4998962;28;20209;-70
2022/07/30 01:58:42;;;;;;;1.90;1.27;;;;;;;18.01;62.17;100679.06;4986062;28;20375;-70
2022/07/30 02:01:25;;;;;;;2.07;1.30;;;;;;;18.02;62.16;100673.69;4986823;28;20193;-70
2022/07/30 02:03:58;;;;;;;3.97;1.30;;;;;;;18.00;62.25;100677.38;4987677;28;20194;-70
2022/07/30 02:06:33;;;;;;;1.70;1.30;;;;;;;17.98;62.11;100667.75;4992195;28;20208;-70
2022/07/30 02:09:05;;;;;;;3.30;1.40;;;;;;;17.98;62.63;100662.47;4994061;28;20283;-70
2022/07/30 02:14:27;;;;;;;1.13;1.03;;;;;;;17.97;62.92;100666.03;4986859;28;20568;-70
2022/07/30 02:16:57;;;;;;;1.20;1.10;;;;;;;17.97;63.18;100659.91;4988364;28;20204;-70
2022/07/30 02:19:28;;;;;;;1.83;1.20;;;;;;;17.95;63.34;100659.16;4987135;28;20272;-70
2022/07/30 02:22:05;;;;;;;1.80;1.00;;;;;;;17.93;63.22;100653.97;4992789;28;20975;-70
2022/07/30 02:24:34;;;;;;;2.67;1.10;;;;;;;17.94;63.04;100657.44;4984672;28;20201;-70
2022/07/30 02:27:14;;;;;;;1.40;1.20;;;;;;;17.94;63.58;100653.03;4988104;28;20206;-70
2022/07/30 02:29:44;;;;;;;1.37;1.07;;;;;;;17.94;63.39;100655.66;4993138;28;20698;-70
2022/07/30 02:32:16;;;;;;;1.43;1.10;;;;;;;17.93;63.87;100647.84;4989794;28;20220;-70
2022/07/30 02:34:46;;;;;;;2.80;1.20;;;;;;;17.93;63.87;100663.66;4988210;28;20208;-70
2022/07/30 02:37:15;;;;;;;1.93;1.03;;;;;;;17.93;63.88;100658.41;4996223;28;20201;-70
2022/07/30 02:39:43;;;;;;;2.73;1.30;;;;;;;17.92;64.04;100659.31;4986321;28;20223;-70
2022/07/30 02:42:12;;;;;;;2.40;1.10;;;;;;;17.91;64.31;100655.84;4987377;28;20252;-70
2022/07/30 02:44:43;;;;;;;1.43;1.30;;;;;;;17.90;64.38;100651.47;4985515;28;20209;-70
2022/07/30 02:47:15;;;;;;;1.40;1.30;;;;;;;17.91;64.25;100644.44;5007759;28;20207;-69
2022/07/30 02:49:53;;;;;;;1.00;0.90;;;;;;;17.89;64.62;100652.44;4980032;28;20541;-70
2022/07/30 02:52:20;;;;;;;1.50;1.00;;;;;;;17.87;65.16;100648.16;4985430;28;20228;-70
2022/07/30 02:54:49;;;;;;;1.30;1.10;;;;;;;17.86;65.28;100649.13;4982763;28;20206;-70
2022/07/30 02:57:18;;;;;;;1.73;1.30;;;;;;;17.83;65.53;100650.09;4995144;28;20297;-70
2022/07/30 02:59:45;;;;;;;3.83;1.33;;;;;;;17.84;65.74;100649.19;5008032;28;20308;-70
2022/07/30 03:02:14;;;;;;;3.27;1.17;;;;;;;17.84;65.78;100638.63;4985078;28;20202;-70
2022/07/30 03:04:42;;;;;;;1.37;1.00;;;;;;;17.81;65.83;100641.44;4985799;28;20197;-70
2022/07/30 03:07:10;;;;;;;2.20;1.37;;;;;;;17.79;66.09;100636.25;4986682;28;20256;-70
2022/07/30 03:09:41;;;;;;;1.43;1.13;;;;;;;17.79;66.29;100644.16;4980855;28;20412;-70
2022/07/30 03:12:11;;;;;;;4.10;1.40;;;;;;;17.76;66.32;100646.09;4987528;28;20293;-70
2022/07/30 03:14:37;;;;;;;1.97;1.33;;;;;;;17.76;66.57;100651.38;4979527;28;20273;-70
2022/07/30 03:17:06;;;;;;;1.37;1.20;;;;;;;17.72;66.61;100644.59;4989461;28;20216;-70
2022/07/30 03:19:37;;;;;;;2.07;1.13;;;;;;;17.73;66.67;100654.19;4994645;28;20193;-70
2022/07/30 03:22:08;;;;;;;1.33;1.23;;;;;;;17.71;67.05;100653.41;4983209;28;20567;-70
2022/07/30 03:24:36;;;;;;;3.53;1.50;;;;;;;17.69;66.93;100657.94;4995583;28;20299;-70
2022/07/30 03:27:04;;;;;;;1.57;1.40;;;;;;;17.67;67.30;100655.38;4986446;28;20200;-70
2022/07/30 03:29:32;;;;;;;3.03;1.10;;;;;;;17.66;66.99;100656.34;4991307;28;20224;-70
2022/07/30 03:32:00;;;;;;;1.33;1.20;;;;;;;17.66;67.41;100653.69;4992039;28;20225;-70
2022/07/30 03:34:27;;;;;;;2.40;1.60;;;;;;;17.65;67.30;100653.78;4989813;28;20706;-72
2022/07/30 03:36:56;;;;;;;3.93;1.47;;;;;;;17.64;67.19;100652.91;4996206;28;20213;-70
2022/07/30 03:39:23;;;;;;;1.20;1.10;;;;;;;17.62;67.41;100649.50;4986058;28;20233;-70
2022/07/30 03:41:50;;;;;;;1.50;1.40;;;;;;;17.59;67.84;100649.69;5002657;28;20784;-70
2022/07/30 03:44:17;;;;;;;1.17;1.10;;;;;;;17.59;67.95;100650.53;4997579;28;20201;-70
2022/07/30 03:46:46;;;;;;;1.37;1.13;;;;;;;17.59;68.11;100649.69;4990097;28;20193;-70
2022/07/30 03:49:13;;;;;;;1.27;1.10;;;;;;;17.59;67.77;100647.06;4988665;28;20224;-70
2022/07/30 03:51:45;;;;;;;1.53;1.33;;;;;;;17.58;67.67;100643.56;4982232;28;20268;-70
2022/07/30 03:54:16;;;;;;;1.70;1.30;;;;;;;17.58;67.92;100653.25;4983562;28;20222;-70
2022/07/30 03:57:02;;;;;;;2.60;1.10;;;;;;;17.56;68.20;100642.78;4985770;28;20216;-70
2022/07/30 03:59:38;;;;;;;1.93;1.20;;;;;;;17.56;68.01;100648.06;4991983;28;20204;-70
2022/07/30 04:02:05;;;;;;;1.10;1.00;;;;;;;17.55;68.36;100646.38;4987840;28;20290;-70
2022/07/30 04:04:51;;;;;;;1.83;1.27;;;;;;;17.56;68.85;100645.44;4992809;28;20205;-70
2022/07/30 04:07:18;;;;;;;1.47;1.07;;;;;;;17.56;68.52;100644.59;4992036;28;20256;-70
2022/07/30 04:09:46;;;;;;;2.43;1.20;;;;;;;17.55;68.07;100658.69;4992434;28;20194;-70
2022/07/30 04:12:27;;;;;;;1.90;1.27;;;;;;;17.55;68.61;100653.41;4991679;28;20593;-70
2022/07/30 04:14:56;;;;;;;2.50;1.40;;;;;;;17.57;69.20;100651.53;4988497;28;20681;-70
2022/07/30 04:17:25;;;;;;;3.67;1.10;;;;;;;17.54;68.80;100652.56;4998621;28;20308;-70
2022/07/30 04:19:56;;;;;;;2.03;1.50;;;;;;;17.55;68.71;100654.28;4986268;28;20247;-70
2022/07/30 04:22:30;;;;;;;1.20;1.10;;;;;;;17.55;68.89;100662.19;4992739;28;20205;-70
2022/07/30 04:24:58;;;;;;;1.20;1.00;;;;;;;17.58;68.86;100658.53;4993403;28;20198;-70
2022/07/30 04:27:25;;;;;;;3.00;1.40;;;;;;;17.57;68.99;100659.44;4986121;28;20725;-70
2022/07/30 04:29:52;;;;;;;1.57;1.20;;;;;;;17.57;69.15;100662.97;4981709;28;20210;-70
2022/07/30 04:32:19;;;;;;;4.20;1.13;;;;;;;17.59;68.92;100674.25;4982011;28;20685;-70
2022/07/30 04:35:05;;;;;;;1.57;1.27;;;;;;;17.60;68.67;100675.09;4987555;28;20212;-70
2022/07/30 04:37:51;;;;;;;2.43;1.50;;;;;;;17.60;68.63;100670.69;4988215;28;20707;-70
2022/07/30 04:40:19;;;;;;;1.77;1.37;;;;;;;17.63;68.56;100680.22;4987552;28;20206;-70
2022/07/30 04:42:46;;;;;;;1.13;1.03;;;;;;;17.64;68.23;100675.78;4986576;28;20205;-70
2022/07/30 04:45:13;;;;;;;3.10;1.50;;;;;;;17.66;68.52;100690.59;4990925;28;20305;-70
2022/07/30 04:47:52;;;;;;;1.27;1.13;;;;;;;17.67;68.30;100684.38;4988733;28;20309;-70
2022/07/30 04:50:24;;;;;;;1.40;1.30;;;;;;;17.69;68.28;100689.56;4990958;28;20212;-70
2022/07/30 04:52:53;;;;;;;1.37;1.27;;;;;;;17.72;67.88;100686.78;4985386;28;20222;-70
2022/07/30 04:55:27;;;;;;;1.90;1.20;;;;;;;17.73;67.92;100686.69;4987206;28;20189;-70
2022/07/30 04:57:55;;;;;;;1.30;1.20;;;;;;;17.74;68.19;100693.66;4989874;28;20316;-70
2022/07/30 05:00:22;;;;;;;3.63;1.30;;;;;;;17.75;68.17;100694.53;4988351;28;20216;-70
2022/07/30 05:02:53;;;;;;;1.87;1.40;;;;;;;17.76;67.96;100686.53;4997573;28;20206;-70
2022/07/30 05:05:24;;;;;;;1.57;1.37;;;;;;;17.78;68.31;100682.03;4991089;28;20211;-70
2022/07/30 05:07:53;;;;;;;1.73;1.50;;;;;;;17.80;68.28;100687.22;4998018;28;20232;-70
2022/07/30 05:10:19;;;;;;;1.43;1.30;;;;;;;17.80;67.97;100687.22;4980997;28;20197;-70
2022/07/30 05:12:47;;;;;;;1.67;1.23;;;;;;;17.82;67.76;100695.00;4984757;28;20653;-70
2022/07/30 05:15:16;;;;;;;1.47;1.30;;;;;;;17.85;67.80;100693.06;4976903;28;20344;-70
2022/07/30 05:17:44;;;;;;;1.40;1.30;;;;;;;17.91;68.64;100707.75;4984099;28;20221;-70
2022/07/30 05:20:11;;;;;;;2.67;1.40;;;;;;;17.92;68.04;100701.50;5002944;28;20248;-70
2022/07/30 05:22:57;;;;;;;1.60;1.50;;;;;;;17.97;68.48;100710.03;4997097;28;20198;-70
2022/07/30 05:25:24;;;;;;;1.93;1.50;;;;;;;17.99;70.11;100710.78;4985510;28;20212;-70
2022/07/30 05:27:57;;;;;;;4.07;1.57;;;;;;;18.00;69.60;100709.88;4984488;28;20567;-70
2022/07/30 05:30:25;;;;;;;1.40;1.30;;;;;;;18.00;67.97;100711.66;4983615;28;20189;-70
2022/07/30 05:32:52;;;;;;;2.03;1.40;;;;;;;18.02;68.15;100704.50;4992219;28;20319;-70
2022/07/30 05:35:19;;;;;;;1.80;1.23;;;;;;;18.05;68.58;100721.00;4983124;28;20308;-70
2022/07/30 05:37:46;;;;;;;2.40;1.43;;;;;;;18.09;69.22;100708.50;4985574;28;20263;-70
2022/07/30 05:40:12;;;;;;;1.50;1.40;;;;;;;18.09;67.27;100717.25;4987086;28;20223;-70
2022/07/30 05:43:05;;;;;;;2.13;1.50;;;;;;;18.11;67.22;100727.72;4984632;28;20282;-70
2022/07/30 05:45:31;;;;;;;1.50;1.40;;;;;;;18.13;67.39;100726.72;5006192;28;20204;-70
2022/07/30 05:47:58;;;;;;;2.10;1.27;;;;;;;18.16;67.16;100730.97;4984981;28;20284;-70
2022/07/30 05:50:25;;;;;;;2.73;1.40;;;;;;;18.19;67.01;100722.00;4990680;28;20764;-70
2022/07/30 05:52:51;;;;;;;2.37;1.40;;;;;;;18.23;66.70;100734.94;4990012;28;20595;-69
2022/07/30 05:55:36;;;;;;;1.43;1.27;;;;;;;18.26;67.14;100726.88;4984600;28;20207;-70
2022/07/30 05:58:13;;;;;;;1.43;1.33;;;;;;;18.26;66.94;100733.94;4985136;28;20232;-70
2022/07/30 06:00:40;;;;;;;2.63;1.63;;;;;;;18.21;66.97;100726.28;4987114;28;20205;-70
2022/07/30 06:03:07;;;;;;;1.40;1.30;;;;;;;18.20;67.76;100731.63;5003253;28;20697;-70
2022/07/30 06:05:52;;;;;;;1.13;1.10;;;;;;;18.18;67.05;100726.44;4981585;28;20212;-70
2022/07/30 06:08:18;;;;;;;1.70;1.30;;;;;;;18.18;68.38;100731.72;4981986;28;20244;-70
2022/07/30 06:10:46;;;;;;;1.43;1.10;;;;;;;18.22;70.04;100730.59;4984759;28;20204;-70
2022/07/30 06:13:14;;;;;;;1.33;1.23;;;;;;;18.23;70.83;100734.09;4985198;28;20233;-70
2022/07/30 06:15:40;;;;;;;4.57;1.80;;;;;;;18.27;72.05;100736.47;4982399;28;20217;-70
2022/07/30 06:18:06;;;;;;;2.13;1.37;;;;;;;18.20;75.06;100739.56;4991935;23;20226;-71
2022/07/30 06:20:48;;;;;;;2.00;1.60;;;;;;;18.14;77.39;100746.03;4959927;28;20206;-71
2022/07/30 06:23:26;;;;;;;4.43;1.47;;;;;;;18.06;78.06;100750.88;4946392;28;20203;-71
2022/07/30 06:26:11;;;;;;;2.07;1.30;;;;;;;18.08;82.58;100736.69;4942222;28;20210;-71
2022/07/30 06:28:40;;;;;;;1.90;1.50;;;;;;;18.08;84.97;100741.09;4943734;28;20220;-70
2022/07/30 06:31:22;;;;;;;2.83;1.60;;;;;;;17.92;87.46;100741.94;4936608;28;20230;-70
2022/07/30 06:33:48;;;;;;;3.47;1.40;;;;;;;17.93;88.95;100741.00;4998329;23;20290;-69
2022/07/30 06:36:15;;;;;;;2.67;1.60;;;;;;;17.91;91.00;100747.31;5002974;28;20751;-69
2022/07/30 06:38:52;;;;;;;1.60;1.50;;;;;;;17.87;94.10;100741.34;4975470;28;20713;-69
2022/07/30 06:41:28;;;;;;;2.73;1.63;;;;;;;17.83;95.37;100739.75;4971241;28;20284;-69
2022/07/30 06:43:59;;;;;;;2.43;1.70;;;;;;;17.78;94.92;100745.31;4971798;28;20213;-69
2022/07/30 06:46:44;;;;;;;1.70;1.60;;;;;;;17.72;92.38;100747.41;4988918;28;20478;-69
2022/07/30 06:49:11;;;;;;;2.67;1.50;;;;;;;17.68;95.33;100748.53;4977055;28;20276;-69
2022/07/30 06:51:37;;;;;;;2.13;1.70;;;;;;;17.70;99.16;100750.13;4975363;28;20216;-69
2022/07/30 06:54:04;;;;;;;1.97;1.77;;;;;;;17.73;96.78;100749.09;4978795;28;20305;-69
2022/07/30 06:56:36;;;;;;;3.03;1.67;;;;;;;17.71;96.79;100749.22;4991103;28;20208;-69
2022/07/30 06:59:06;;;;;;;1.70;1.60;;;;;;;17.72;95.37;100752.69;4990805;28;20205;-69
2022/07/30 07:01:52;;;;;;;1.77;1.67;;;;;;;17.65;94.86;100752.16;4991741;28;20209;-69
2022/07/30 07:04:19;;;;;;;2.53;1.70;;;;;;;17.67;95.58;100757.34;4974804;28;20208;-69
2022/07/30 07:06:46;;;;;;;3.63;1.60;;;;;;;17.57;92.79;100755.22;4972870;28;20754;-69
2022/07/30 07:09:17;;;;;;;1.40;1.30;;;;;;;17.53;93.23;100753.66;4970549;28;20243;-69
2022/07/30 07:11:55;;;;;;;3.00;1.60;;;;;;;17.60;92.80;100757.69;4971351;28;20217;-69
2022/07/30 07:14:23;;;;;;;2.77;1.60;;;;;;;17.56;94.36;100764.06;4984070;28;20733;-69
2022/07/30 07:16:49;;;;;;;2.00;1.60;;;;;;;17.52;94.25;100751.97;4973030;28;20197;-69
2022/07/30 07:19:34;;;;;;;2.00;1.50;;;;;;;17.52;95.26;100756.38;4993695;28;20228;-69
2022/07/30 07:22:01;;;;;;;2.17;1.40;;;;;;;17.57;96.74;100746.44;4970675;28;20539;-69
2022/07/30 07:24:28;;;;;;;1.93;1.70;;;;;;;17.58;96.90;100751.63;4975328;28;20198;-69
2022/07/30 07:26:58;;;;;;;1.60;1.50;;;;;;;17.59;97.36;100752.50;4975301;28;20240;-69
2022/07/30 07:29:27;;;;;;;2.27;1.57;;;;;;;17.62;97.43;100748.84;4974395;28;20670;-69
2022/07/30 07:31:53;;;;;;;1.50;1.40;;;;;;;17.66;97.80;100753.00;4999133;28;20201;-69
2022/07/30 07:34:20;;;;;;;1.87;1.60;;;;;;;17.67;96.78;100747.66;4980312;28;20216;-69
2022/07/30 07:36:46;;;;;;;1.60;1.50;;;;;;;17.70;93.96;100755.41;4980067;28;20551;-69
2022/07/30 07:39:13;;;;;;;1.70;1.60;;;;;;;17.66;94.17;100764.44;4972515;28;20252;-69
2022/07/30 07:41:42;;;;;;;2.23;1.73;;;;;;;17.60;94.42;100760.31;4973996;28;20205;-69
2022/07/30 07:44:09;;;;;;;2.00;1.80;;;;;;;17.60;94.55;100764.75;4984001;28;20703;-69
2022/07/30 07:46:37;;;;;;;3.57;1.80;;;;;;;17.55;95.47;100772.03;4993114;28;20216;-69
2022/07/30 07:49:04;;;;;;;1.57;1.47;;;;;;;17.58;97.22;100767.44;4976518;28;20247;-69
2022/07/30 07:51:42;;;;;;;1.87;1.77;;;;;;;17.49;96.35;100767.09;4976628;28;20711;-69
2022/07/30 07:54:12;;;;;;;2.73;1.90;;;;;;;17.48;96.83;100763.59;4990898;28;20204;-69
2022/07/30 07:56:39;;;;;;;1.87;1.60;;;;;;;17.45;96.91;100766.41;4978277;28;20197;-69
2022/07/30 07:59:07;;;;;;;1.70;1.47;;;;;;;17.40;98.59;100765.81;4973781;28;20323;-69
2022/07/30 08:01:33;;;;;;;1.97;1.67;;;;;;;17.42;99.28;100758.66;4973827;28;20649;-69
2022/07/30 08:04:37;;;;;;;2.10;1.80;;;;;;;17.46;98.84;100768.09;4977922;28;20197;-69
2022/07/30 08:07:09;;;;;;;1.90;1.80;;;;;;;17.35;97.31;100766.03;4993603;28;20341;-69
2022/07/30 08:09:54;;;;;;;2.20;2.00;;;;;;;17.33;96.99;100770.53;4991998;28;20282;-69
2022/07/30 08:12:30;;;;;;;2.70;1.90;;;;;;;17.41;98.73;100762.22;4975402;28;20216;-69
2022/07/30 08:15:24;;;;;;;2.27;1.93;;;;;;;17.46;99.03;100769.91;4994459;28;20225;-68
2022/07/30 08:18:09;;;;;;;4.13;1.90;;;;;;;17.55;98.28;100770.28;4989136;28;20224;-69
2022/07/30 08:20:45;;;;;;;4.63;1.90;;;;;;;17.64;99.86;100775.97;4986108;28;20215;-69
2022/07/30 08:23:13;;;;;;;1.73;1.50;;;;;;;17.52;100.00;100778.34;4995217;28;20292;-69
2022/07/30 08:25:39;;;;;;;3.30;2.03;;;;;;;17.45;99.64;100776.97;4978264;28;20211;-69
2022/07/30 08:28:06;;;;;;;4.63;2.20;;;;;;;17.49;100.00;100775.84;4972913;28;20360;-69
2022/07/30 08:30:33;;;;;;;2.30;1.87;;;;;;;17.59;98.81;100784.16;4990367;28;20193;-69
2022/07/30 08:32:59;;;;;;;3.00;2.03;;;;;;;17.67;100.00;100778.44;4971888;28;20713;-69
2022/07/30 08:35:26;;;;;;;3.17;2.20;;;;;;;17.67;98.22;100773.19;4972446;28;20203;-68
2022/07/30 08:37:53;;;;;;;2.93;2.27;;;;;;;17.72;98.41;100773.78;4988317;28;20220;-69
2022/07/30 08:40:26;;;;;;;3.93;1.90;;;;;;;17.77;98.86;100779.66;4975717;28;20574;-69
2022/07/30 08:43:04;;;;;;;2.93;2.17;;;;;;;17.87;100.00;100775.63;4975462;28;20209;-69
2022/07/30 08:45:32;;;;;;;3.13;2.60;;;;;;;17.91;100.00;100773.69;4988194;28;20608;-69
2022/07/30 08:48:08;;;;;;;2.97;2.37;;;;;;;17.87;97.47;100783.56;4978991;28;20732;-69
2022/07/30 08:50:44;;;;;;;3.10;2.10;;;;;;;17.80;97.99;100779.50;4976014;28;20707;-69
2022/07/30 08:53:36;;;;;;;4.27;2.73;;;;;;;17.87;100.00;100777.41;4989232;28;20217;-69
2022/07/30 08:56:04;;;;;;;2.90;2.30;;;;;;;17.81;98.42;100781.19;4968784;28;20283;-69
2022/07/30 08:58:34;;;;;;;4.13;2.03;;;;;;;17.82;98.64;100782.91;4967467;28;20259;-69
2022/07/30 09:01:01;;;;;;;2.87;2.20;;;;;;;17.81;99.08;100780.34;4982781;28;20486;-69
2022/07/30 09:03:29;;;;;;;2.97;2.23;;;;;;;17.84;98.32;100790.75;4987679;28;20285;-69
2022/07/30 09:06:00;;;;;;;4.77;2.80;;;;;;;17.82;98.26;100789.94;4970109;28;20584;-69
2022/07/30 09:08:26;;;;;;;3.77;2.00;;;;;;;17.79;98.01;100789.19;4974265;28;20767;-69
2022/07/30 09:10:54;;;;;;;3.47;2.10;;;;;;;17.85;99.57;100790.63;4967545;28;20195;-69
2022/07/30 09:13:26;;;;;;;2.47;1.90;;;;;;;17.92;100.00;100786.78;4975152;28;20213;-70
2022/07/30 09:15:54;;;;;;;3.23;2.40;;;;;;;17.97;98.85;100787.38;4982632;28;20728;-69
2022/07/30 09:18:28;;;;;;;3.93;2.10;;;;;;;17.98;99.19;100790.88;4981527;28;20232;-69
2022/07/30 09:20:55;;;;;;;3.37;2.60;;;;;;;18.00;99.59;100790.78;4988308;28;20211;-69
2022/07/30 09:23:21;;;;;;;2.53;2.17;;;;;;;18.03;99.00;100793.25;4973879;28;20197;-70
2022/07/30 09:26:08;;;;;;;2.90;2.37;;;;;;;17.92;98.18;100792.06;4987238;28;20216;-69
2022/07/30 09:28:43;;;;;;;2.37;2.00;;;;;;;17.83;99.63;100791.66;4988853;28;20247;-69
2022/07/30 09:31:13;;;;;;;2.67;2.10;;;;;;;17.78;100.00;100794.53;4988660;28;20745;-69
2022/07/30 09:33:58;;;;;;;2.83;2.30;;;;;;;17.73;100.00;100796.56;4988136;28;20705;-69
2022/07/30 09:36:43;;;;;;;3.43;2.20;;;;;;;17.74;100.00;100785.94;4992143;28;20195;-69
2022/07/30 09:39:32;;;;;;;4.23;2.40;;;;;;;17.66;100.00;100793.44;4992911;28;20235;-69
2022/07/30 09:42:22;;;;;;;2.20;2.00;;;;;;;17.71;100.00;100804.59;4988574;28;20608;-69
2022/07/30 09:44:50;;;;;;;2.10;1.90;;;;;;;17.76;100.00;100801.69;4971622;28;20197;-69
2022/07/30 09:47:30;;;;;;;2.73;2.20;;;;;;;17.82;100.00;100795.22;4969378;28;20255;-69
2022/07/30 09:50:03;;;;;;;3.03;2.27;;;;;;;17.83;100.00;100792.50;4970324;28;20212;-69
2022/07/30 09:52:30;;;;;;;3.23;2.20;;;;;;;17.83;100.00;100803.06;4970715;28;20201;-69
2022/07/30 09:54:56;;;;;;;3.13;2.17;;;;;;;17.86;100.00;100813.47;4969948;28;20733;-69
2022/07/30 09:57:28;;;;;;;2.20;1.83;;;;;;;17.86;100.00;100804.72;4974224;28;20197;-69
2022/07/30 10:00:16;;;;;;;3.67;2.20;;;;;;;17.96;100.00;100805.94;4967778;28;20194;-69
2022/07/30 10:02:43;;;;;;;3.10;2.00;;;;;;;18.01;100.00;100803.91;4987248;28;20728;-69
2022/07/30 10:05:28;;;;;;;4.43;2.17;;;;;;;18.08;100.00;100804.41;4991655;28;20208;-69
2022/07/30 10:07:57;;;;;;;2.40;2.20;;;;;;;18.20;100.00;100800.25;4970139;28;20221;-70
2022/07/30 10:10:26;;;;;;;2.90;1.97;;;;;;;18.30;100.00;100802.28;4981875;28;20201;-69
2022/07/30 10:12:57;;;;;;;3.17;2.07;;;;;;;18.31;100.00;100803.13;4973204;28;20775;-69
2022/07/30 10:15:28;;;;;;;7.33;2.20;;;;;;;18.44;100.00;100798.03;4991522;28;20320;-69
2022/07/30 10:17:55;;;;;;;3.83;1.83;;;;;;;18.36;100.00;100806.34;4973259;28;20589;-69
2022/07/30 10:21:02;;;;;;;2.13;1.80;;;;;;;18.41;100.00;100798.19;4989097;28;20205;-69
2022/07/30 10:23:47;;;;;;;2.70;2.07;;;;;;;18.49;100.00;100790.72;4989597;28;20544;-69
2022/07/30 10:26:46;;;;;;;3.57;2.17;;;;;;;18.51;100.00;100799.38;4972661;28;20209;-69
2022/07/30 10:29:33;;;;;;;2.30;2.10;;;;;;;18.47;99.73;100797.88;4993093;28;20286;-69
2022/07/30 10:32:00;;;;;;;2.10;1.90;;;;;;;18.51;100.00;100791.47;5000060;28;20204;-69
2022/07/30 10:34:27;;;;;;;2.77;1.87;;;;;;;18.39;98.93;100797.44;4990372;28;20705;-70
2022/07/30 10:36:57;;;;;;;3.80;1.80;;;;;;;18.50;100.00;100797.66;4993145;28;20197;-70
2022/07/30 10:39:29;;;;;;;2.27;1.80;;;;;;;18.40;96.79;100801.75;4995641;28;20229;-69
2022/07/30 10:42:06;;;;;;;2.00;1.80;;;;;;;18.60;100.00;100787.44;4987739;28;20206;-69
2022/07/30 10:45:03;;;;;;;2.80;1.83;;;;;;;18.64;99.99;100788.97;4989788;28;20197;-69
2022/07/30 10:47:31;;;;;;;2.00;1.80;;;;;;;18.53;99.02;100795.69;4992807;28;20217;-69
2022/07/30 10:50:07;;;;;;;1.87;1.60;;;;;;;18.57;99.96;100790.25;4990980;28;20211;-69
2022/07/30 10:52:43;;;;;;;1.97;1.60;;;;;;;18.66;98.51;100797.66;4988974;28;20189;-69
2022/07/30 10:55:13;;;;;;;5.87;1.60;;;;;;;18.67;97.19;100800.19;4989551;28;20197;-69
2022/07/30 10:58:01;;;;;;;2.57;1.67;;;;;;;18.63;97.27;100798.69;4984491;28;20637;-69
2022/07/30 11:00:30;;;;;;;3.17;1.67;;;;;;;18.62;95.97;100799.63;4982775;28;20913;-69
2022/07/30 11:03:17;;;;;;;1.40;1.30;;;;;;;18.63;94.88;100800.47;4989581;28;20201;-69
2022/07/30 11:05:44;;;;;;;2.07;1.60;;;;;;;18.66;94.39;100800.28;4991216;28;20197;-69
2022/07/30 11:08:29;;;;;;;2.83;1.40;;;;;;;18.72;96.95;100799.94;4997547;28;20247;-69
2022/07/30 11:10:55;;;;;;;1.70;1.60;;;;;;;18.69;93.92;100803.59;4995224;28;20267;-69
2022/07/30 11:13:50;;;;;;;1.80;1.60;;;;;;;18.74;93.49;100798.91;4990084;28;20701;-69
2022/07/30 11:16:19;;;;;;;1.43;1.33;;;;;;;18.66;93.87;100806.44;4989478;28;20205;-69
2022/07/30 11:19:04;;;;;;;1.97;1.77;;;;;;;18.67;94.55;100794.91;4989362;28;20259;-69
2022/07/30 11:21:31;;;;;;;2.90;1.80;;;;;;;18.63;92.85;100809.25;4994484;28;20219;-69
2022/07/30 11:23:58;;;;;;;4.77;1.70;;;;;;;18.64;93.71;100804.81;4990778;28;20272;-69
2022/07/30 11:26:48;;;;;;;1.97;1.60;;;;;;;18.54;93.20;100801.84;4996290;28;20217;-68
2022/07/30 11:29:37;;;;;;;2.50;1.50;;;;;;;18.68;94.47;100795.75;4997558;28;20229;-69
2022/07/30 11:32:28;;;;;;;2.13;1.60;;;;;;;18.69;95.20;100794.84;4986205;28;20224;-69
2022/07/30 11:35:14;;;;;;;1.87;1.27;;;;;;;18.69;94.04;100806.25;4990316;28;20208;-69
2022/07/30 11:38:02;;;;;;;1.57;1.47;;;;;;;18.71;95.17;100798.25;4986312;28;20221;-69
2022/07/30 11:40:30;;;;;;;1.97;1.40;;;;;;;18.67;92.75;100797.56;4981316;28;20213;-69
2022/07/30 11:43:16;;;;;;;1.90;1.70;;;;;;;18.74;94.05;100800.72;4985589;28;20205;-69
2022/07/30 11:45:44;;;;;;;1.60;1.33;;;;;;;18.76;92.58;100803.28;4985995;28;20197;-69
2022/07/30 11:48:13;;;;;;;1.83;1.60;;;;;;;18.71;93.04;100803.53;4988478;28;20229;-69
2022/07/30 11:50:41;;;;;;;2.60;1.80;;;;;;;18.66;93.35;100802.94;4989607;28;20205;-69